createdAt,value
2019-03-09T00:00:59.764Z,4.90
2019-03-09T00:03:28.968Z,5.07
2019-03-09T00:05:58.139Z,4.40
2019-03-09T00:08:27.308Z,5.13
2019-03-09T00:10:56.511Z,3.93
2019-03-09T00:13:25.684Z,5.17
2019-03-09T00:15:54.876Z,4.77
2019-03-09T00:18:24.034Z,5.47
2019-03-09T00:20:53.228Z,5.87
2019-03-09T00:23:27.206Z,5.97
2019-03-09T00:26:06.823Z,6.80
2019-03-09T00:28:37.662Z,6.43
2019-03-09T00:31:10.953Z,6.40
2019-03-09T00:33:40.131Z,7.90
2019-03-09T00:36:09.307Z,7.27
2019-03-09T00:38:38.493Z,7.53
2019-03-09T00:41:07.688Z,7.57
2019-03-09T00:43:36.857Z,7.60
2019-03-09T00:46:06.048Z,7.27
2019-03-09T00:48:35.235Z,7.83
2019-03-09T00:51:04.407Z,7.77
2019-03-09T00:53:33.607Z,7.63
2019-03-09T00:56:02.771Z,8.47
2019-03-09T00:58:31.957Z,7.07
2019-03-09T01:01:01.147Z,7.40
2019-03-09T01:03:30.325Z,6.57
2019-03-09T01:05:59.517Z,7.23
2019-03-09T01:08:28.691Z,7.53
2019-03-09T01:10:57.878Z,6.80
2019-03-09T01:13:27.058Z,6.40
2019-03-09T01:15:56.274Z,7.53
2019-03-09T01:18:25.486Z,6.33
2019-03-09T01:20:54.716Z,5.07
2019-03-09T01:23:23.864Z,6.40
2019-03-09T01:25:53.063Z,6.03
2019-03-09T01:28:22.244Z,6.93
2019-03-09T01:30:51.458Z,6.43
2019-03-09T01:33:20.700Z,6.33
2019-03-09T01:35:50.071Z,6.47
2019-03-09T01:38:19.264Z,6.13
2019-03-09T01:40:48.437Z,5.97
2019-03-09T01:43:17.733Z,5.63
2019-03-09T01:45:46.940Z,5.30
2019-03-09T01:48:16.123Z,5.27
2019-03-09T01:50:45.294Z,4.63
2019-03-09T01:53:14.473Z,4.77
2019-03-09T01:55:43.675Z,3.67
2019-03-09T01:58:12.867Z,4.33
2019-03-09T02:00:42.233Z,4.67
2019-03-09T02:03:11.411Z,4.97
2019-03-09T02:05:40.594Z,5.20
2019-03-09T02:08:09.787Z,5.43
2019-03-09T02:10:38.983Z,5.33
2019-03-09T02:13:08.182Z,5.30
2019-03-09T02:15:37.390Z,6.00
2019-03-09T02:18:06.592Z,5.70
2019-03-09T02:20:35.842Z,6.30
2019-03-09T02:23:05.058Z,5.23
2019-03-09T02:25:34.253Z,5.57
2019-03-09T02:28:03.442Z,5.17
2019-03-09T02:30:32.639Z,6.17
2019-03-09T02:33:02.501Z,5.03
2019-03-09T02:35:31.682Z,5.60
2019-03-09T02:38:02.603Z,4.40
2019-03-09T02:40:31.785Z,5.17
2019-03-09T02:43:00.959Z,5.23
2019-03-09T02:45:31.840Z,5.23
2019-03-09T02:48:00.999Z,3.77
2019-03-09T02:50:30.205Z,4.53
2019-03-09T02:52:59.378Z,4.80
2019-03-09T02:55:28.570Z,3.63
2019-03-09T02:57:57.757Z,4.30
2019-03-09T03:00:28.579Z,3.97
2019-03-09T03:03:02.059Z,4.07
2019-03-09T03:05:31.236Z,3.83
2019-03-09T03:08:00.412Z,3.57
2019-03-09T03:10:29.611Z,3.13
2019-03-09T03:12:58.794Z,3.83
2019-03-09T03:15:31.025Z,3.37
2019-03-09T03:18:00.561Z,4.60
2019-03-09T03:20:29.730Z,3.63
2019-03-09T03:22:58.989Z,3.87
2019-03-09T03:25:28.250Z,3.97
2019-03-09T03:27:57.454Z,2.90
2019-03-09T03:30:26.733Z,4.70
2019-03-09T03:32:57.537Z,3.13
2019-03-09T03:35:26.723Z,3.20
2019-03-09T03:37:55.886Z,3.60
2019-03-09T03:40:25.083Z,3.03
2019-03-09T03:42:54.259Z,3.23
2019-03-09T03:45:29.225Z,3.20
2019-03-09T03:47:58.534Z,2.67
2019-03-09T03:50:27.713Z,3.47
2019-03-09T03:52:56.902Z,2.73
2019-03-09T03:55:26.267Z,2.97
2019-03-09T03:57:55.570Z,3.33
2019-03-09T04:00:24.760Z,4.23
2019-03-09T04:02:54.887Z,2.83
2019-03-09T04:05:24.135Z,2.63
2019-03-09T04:07:53.476Z,3.07
2019-03-09T04:10:22.762Z,2.37
2019-03-09T04:12:52.700Z,3.27
2019-03-09T04:15:21.874Z,2.93
2019-03-09T04:17:51.069Z,2.80
2019-03-09T04:20:20.259Z,2.70
2019-03-09T04:22:49.685Z,3.10
2019-03-09T04:25:18.808Z,3.20
2019-03-09T04:27:48.056Z,2.80
2019-03-09T04:30:17.223Z,2.57
2019-03-09T04:32:46.408Z,2.50
2019-03-09T04:35:15.599Z,2.80
2019-03-09T04:37:44.760Z,3.00
2019-03-09T04:40:14.894Z,3.23
2019-03-09T04:42:44.193Z,3.27
2019-03-09T04:45:14.027Z,3.17
2019-03-09T04:47:43.189Z,2.67
2019-03-09T04:50:15.533Z,3.47
2019-03-09T04:52:44.704Z,3.33
2019-03-09T04:55:13.951Z,3.30
2019-03-09T04:57:43.150Z,3.30
2019-03-09T05:00:15.091Z,3.33
2019-03-09T05:02:44.283Z,2.43
2019-03-09T05:05:13.621Z,3.00
2019-03-09T05:07:48.482Z,3.00
2019-03-09T05:10:29.593Z,3.37
2019-03-09T05:13:05.034Z,2.97
2019-03-09T05:15:34.159Z,3.20
2019-03-09T05:18:03.344Z,3.30
2019-03-09T05:20:32.528Z,3.97
2019-03-09T05:23:01.766Z,2.90
2019-03-09T05:25:30.874Z,3.00
2019-03-09T05:28:00.064Z,2.60
2019-03-09T05:30:42.400Z,3.00
2019-03-09T05:33:11.772Z,2.27
2019-03-09T05:35:40.950Z,3.00
2019-03-09T05:38:10.180Z,2.57
2019-03-09T05:40:39.378Z,2.63
2019-03-09T05:43:08.617Z,2.60
2019-03-09T05:45:37.869Z,2.57
2019-03-09T05:48:07.028Z,2.10
2019-03-09T05:50:36.190Z,2.70
2019-03-09T05:53:11.300Z,4.10
2019-03-09T05:55:40.482Z,3.80
2019-03-09T05:58:09.684Z,3.50
2019-03-09T06:00:40.050Z,3.43
2019-03-09T06:03:09.233Z,3.20
2019-03-09T06:05:40.886Z,4.07
2019-03-09T06:08:10.057Z,3.73
2019-03-09T06:10:39.266Z,3.60
2019-03-09T06:13:08.531Z,4.27
2019-03-09T06:15:37.672Z,3.43
2019-03-09T06:18:06.939Z,3.83
2019-03-09T06:20:36.084Z,3.13
2019-03-09T06:23:05.366Z,3.53
2019-03-09T06:25:34.538Z,3.43
2019-03-09T06:28:03.839Z,3.20
2019-03-09T06:30:33.991Z,2.90
2019-03-09T06:33:26.239Z,3.10
2019-03-09T06:36:01.224Z,3.07
2019-03-09T06:38:42.447Z,3.70
2019-03-09T06:41:14.678Z,3.90
2019-03-09T06:43:43.892Z,3.53
2019-03-09T06:46:30.928Z,3.60
2019-03-09T06:49:00.115Z,4.40
2019-03-09T06:51:29.312Z,3.70
2019-03-09T06:53:58.566Z,4.13
2019-03-09T06:56:27.742Z,4.03
2019-03-09T06:58:56.921Z,3.60
2019-03-09T07:01:26.096Z,3.97
2019-03-09T07:03:55.297Z,3.30
2019-03-09T07:06:24.469Z,4.03
2019-03-09T07:08:53.649Z,3.37
2019-03-09T07:11:22.858Z,3.87
2019-03-09T07:13:53.216Z,3.87
2019-03-09T07:16:22.564Z,3.73
2019-03-09T07:18:51.743Z,3.17
2019-03-09T07:21:20.913Z,3.60
2019-03-09T07:23:50.095Z,5.17
2019-03-09T07:26:19.268Z,3.60
2019-03-09T07:28:48.441Z,3.53
2019-03-09T07:31:17.628Z,4.20
2019-03-09T07:33:46.796Z,3.67
2019-03-09T07:36:15.978Z,3.83
2019-03-09T07:38:45.162Z,3.57
2019-03-09T07:41:14.330Z,3.27
2019-03-09T07:43:43.488Z,5.10
2019-03-09T07:46:12.691Z,4.13
2019-03-09T07:48:41.806Z,4.63
2019-03-09T07:51:10.977Z,4.00
2019-03-09T07:53:40.191Z,4.43
2019-03-09T07:56:09.384Z,5.57
2019-03-09T07:58:38.549Z,4.47
2019-03-09T08:01:07.751Z,4.23
2019-03-09T08:03:36.929Z,3.90
2019-03-09T08:06:06.093Z,3.90
2019-03-09T08:08:53.295Z,3.90
2019-03-09T08:11:22.475Z,4.10
2019-03-09T08:14:09.903Z,4.63
2019-03-09T08:16:39.491Z,3.60
2019-03-09T08:19:08.680Z,4.33
2019-03-09T08:21:37.866Z,3.67
2019-03-09T08:24:07.080Z,4.07
2019-03-09T08:26:36.165Z,4.60
2019-03-09T08:29:05.324Z,5.20
2019-03-09T08:31:34.890Z,3.83
2019-03-09T08:34:03.983Z,4.33
2019-03-09T08:36:51.415Z,4.10
2019-03-09T08:39:20.624Z,4.03
2019-03-09T08:41:49.810Z,5.07
2019-03-09T08:44:19.178Z,4.73
2019-03-09T08:46:48.370Z,4.83
2019-03-09T08:49:17.554Z,4.33
2019-03-09T08:51:47.156Z,4.30
2019-03-09T08:54:16.389Z,4.33
2019-03-09T08:56:45.556Z,4.23
2019-03-09T08:59:14.736Z,4.80
2019-03-09T09:01:43.946Z,4.90
2019-03-09T09:04:13.111Z,5.03
2019-03-09T09:06:42.290Z,4.83
2019-03-09T09:09:11.468Z,4.20
2019-03-09T09:11:40.640Z,4.80
2019-03-09T09:14:09.822Z,4.67
2019-03-09T09:16:39.004Z,4.40
2019-03-09T09:19:08.184Z,4.67
2019-03-09T09:21:37.371Z,4.70
2019-03-09T09:24:06.549Z,4.70
2019-03-09T09:26:35.739Z,3.83
2019-03-09T09:29:04.990Z,5.67
2019-03-09T09:31:34.165Z,4.53
2019-03-09T09:34:03.272Z,4.67
2019-03-09T09:36:32.619Z,3.83
2019-03-09T09:39:01.824Z,3.93
2019-03-09T09:41:31.009Z,4.33
2019-03-09T09:44:00.191Z,4.70
2019-03-09T09:46:29.480Z,5.90
2019-03-09T09:48:58.719Z,4.77
2019-03-09T09:51:27.957Z,4.70
2019-03-09T09:53:57.094Z,5.03
2019-03-09T09:56:26.274Z,5.27
2019-03-09T09:58:55.461Z,4.67
2019-03-09T10:01:24.627Z,5.10
2019-03-09T10:03:53.812Z,4.33
2019-03-09T10:06:23.002Z,5.43
2019-03-09T10:08:52.190Z,5.57
2019-03-09T10:11:21.374Z,5.87
2019-03-09T10:13:50.563Z,5.43
2019-03-09T10:16:19.776Z,5.97
2019-03-09T10:18:49.052Z,5.20
2019-03-09T10:21:36.513Z,6.43
2019-03-09T10:24:23.539Z,7.73
2019-03-09T10:26:52.920Z,7.60
2019-03-09T10:29:22.707Z,7.77
2019-03-09T10:31:51.878Z,7.83
2019-03-09T10:34:21.065Z,8.00
2019-03-09T10:36:50.247Z,7.20
2019-03-09T10:39:19.428Z,8.90
2019-03-09T10:41:48.653Z,7.30
2019-03-09T10:44:17.818Z,7.47
2019-03-09T10:46:47.001Z,7.00
2019-03-09T10:49:16.191Z,7.10
2019-03-09T10:51:45.388Z,6.53
2019-03-09T10:54:14.670Z,6.20
2019-03-09T10:56:44.422Z,5.93
2019-03-09T10:59:13.601Z,6.17
2019-03-09T11:01:42.877Z,5.90
2019-03-09T11:04:12.049Z,6.57
2019-03-09T11:06:41.243Z,6.57
2019-03-09T11:09:11.271Z,6.37
2019-03-09T11:11:40.453Z,6.23
2019-03-09T11:14:09.555Z,6.27
2019-03-09T11:16:38.724Z,5.73
2019-03-09T11:19:07.920Z,6.23
2019-03-09T11:21:37.100Z,6.93
2019-03-09T11:24:06.276Z,7.17
2019-03-09T11:26:35.479Z,6.80
2019-03-09T11:29:04.675Z,7.63
2019-03-09T11:31:33.895Z,8.30
2019-03-09T11:34:03.084Z,6.93
2019-03-09T11:36:32.294Z,7.77
2019-03-09T11:39:01.476Z,8.03
2019-03-09T11:41:30.659Z,7.33
2019-03-09T11:43:59.881Z,6.87
2019-03-09T11:46:29.054Z,8.57
2019-03-09T11:48:58.264Z,7.90
2019-03-09T11:51:27.436Z,7.50
2019-03-09T11:53:56.628Z,8.50
2019-03-09T11:56:25.826Z,7.63
2019-03-09T11:58:55.087Z,8.30
2019-03-09T12:01:24.275Z,8.37
2019-03-09T12:03:53.466Z,7.97
2019-03-09T12:06:22.822Z,7.07
2019-03-09T12:08:52.004Z,6.47
2019-03-09T12:11:21.208Z,7.73
2019-03-09T12:13:50.400Z,7.53
2019-03-09T12:16:19.582Z,8.20
2019-03-09T12:18:48.765Z,8.53
2019-03-09T12:21:17.945Z,9.30
2019-03-09T12:23:47.167Z,9.13
2019-03-09T12:26:16.345Z,9.47
2019-03-09T12:28:45.527Z,8.67
2019-03-09T12:31:14.697Z,8.03
2019-03-09T12:33:43.933Z,8.60
2019-03-09T12:36:13.145Z,8.10
2019-03-09T12:38:42.313Z,8.43
2019-03-09T12:41:11.497Z,9.20
2019-03-09T12:43:40.675Z,9.60
2019-03-09T12:46:09.872Z,8.63
2019-03-09T12:48:40.374Z,9.50
2019-03-09T12:51:09.543Z,8.30
2019-03-09T12:53:38.741Z,9.77
2019-03-09T12:56:07.914Z,8.50
2019-03-09T12:58:55.065Z,8.27
2019-03-09T13:01:24.246Z,8.90
2019-03-09T13:03:53.424Z,9.73
2019-03-09T13:06:22.569Z,10.50
2019-03-09T13:08:51.761Z,10.27
2019-03-09T13:11:20.995Z,9.93
2019-03-09T13:14:08.336Z,9.93
2019-03-09T13:16:37.543Z,9.37
2019-03-09T13:19:06.764Z,9.57
2019-03-09T13:21:35.952Z,9.33
2019-03-09T13:24:05.149Z,9.80
2019-03-09T13:26:34.345Z,9.20
2019-03-09T13:29:03.463Z,10.83
2019-03-09T13:31:32.644Z,9.03
2019-03-09T13:34:01.833Z,8.83
2019-03-09T13:36:48.741Z,8.80
2019-03-09T13:39:17.934Z,8.33
2019-03-09T13:41:47.121Z,7.83
2019-03-09T13:44:16.331Z,10.73
2019-03-09T13:46:45.516Z,9.23
2019-03-09T13:49:14.708Z,10.13
2019-03-09T13:51:43.897Z,8.57
2019-03-09T13:54:13.111Z,6.73
2019-03-09T13:56:42.308Z,7.10
2019-03-09T13:59:11.509Z,8.00
2019-03-09T14:01:40.699Z,8.07
2019-03-09T14:04:09.892Z,9.67
2019-03-09T14:06:39.093Z,6.23
2019-03-09T14:09:09.973Z,6.47
2019-03-09T14:11:39.167Z,6.83
2019-03-09T14:14:08.359Z,6.83
2019-03-09T14:16:37.532Z,7.07
2019-03-09T14:19:06.803Z,7.47
2019-03-09T14:21:35.990Z,8.63
2019-03-09T14:24:05.402Z,8.83
2019-03-09T14:26:34.588Z,9.53
2019-03-09T14:29:05.411Z,9.33
2019-03-09T14:31:34.645Z,8.33
2019-03-09T14:34:03.814Z,7.73
2019-03-09T14:36:33.680Z,6.07
2019-03-09T14:39:04.244Z,4.17
2019-03-09T14:41:33.425Z,3.03
2019-03-09T14:44:02.616Z,3.60
2019-03-09T14:46:31.729Z,2.43
2019-03-09T14:49:00.917Z,2.53
2019-03-09T14:51:30.123Z,2.23
2019-03-09T14:53:59.303Z,2.00
2019-03-09T14:56:28.623Z,1.73
2019-03-09T14:58:57.817Z,1.67
2019-03-09T15:01:27.134Z,2.53
2019-03-09T15:03:56.389Z,1.87
2019-03-09T15:06:43.726Z,2.07
2019-03-09T15:09:30.794Z,2.63
2019-03-09T15:11:59.998Z,2.00
2019-03-09T15:14:29.188Z,3.37
2019-03-09T15:16:58.360Z,2.53
2019-03-09T15:19:27.558Z,2.80
2019-03-09T15:21:56.748Z,2.90
2019-03-09T15:24:25.937Z,2.60
2019-03-09T15:26:55.149Z,2.47
2019-03-09T15:29:24.323Z,2.90
2019-03-09T15:31:53.522Z,3.63
2019-03-09T15:34:22.723Z,2.93
2019-03-09T15:36:51.902Z,2.93
2019-03-09T15:39:21.369Z,3.47
2019-03-09T15:41:50.563Z,3.67
2019-03-09T15:44:19.832Z,3.17
2019-03-09T15:46:49.032Z,4.17
2019-03-09T15:49:36.418Z,3.83
2019-03-09T15:52:05.608Z,3.43
2019-03-09T15:54:34.833Z,3.83
2019-03-09T15:57:04.078Z,3.80
2019-03-09T15:59:33.273Z,3.63
2019-03-09T16:02:05.506Z,3.07
2019-03-09T16:04:34.702Z,2.87
2019-03-09T16:07:06.305Z,2.83
2019-03-09T16:09:35.503Z,3.93
2019-03-09T16:12:04.695Z,3.03
2019-03-09T16:14:33.878Z,3.47
2019-03-09T16:17:05.992Z,3.17
2019-03-09T16:19:35.183Z,3.17
2019-03-09T16:22:04.494Z,3.30
2019-03-09T16:24:33.671Z,3.33
2019-03-09T16:27:02.841Z,3.10
2019-03-09T16:29:32.022Z,2.83
2019-03-09T16:32:01.215Z,3.67
2019-03-09T16:34:30.414Z,2.87
2019-03-09T16:37:01.683Z,3.97
2019-03-09T16:39:30.863Z,3.20
2019-03-09T16:42:00.061Z,3.30
2019-03-09T16:44:29.261Z,4.00
2019-03-09T16:46:58.478Z,3.40
2019-03-09T16:49:29.433Z,3.83
2019-03-09T16:51:58.621Z,3.53
2019-03-09T16:54:27.901Z,3.37
2019-03-09T16:56:57.087Z,2.70
2019-03-09T16:59:26.327Z,3.80
2019-03-09T17:01:55.497Z,3.10
2019-03-09T17:04:24.701Z,3.77
2019-03-09T17:06:53.874Z,3.77
2019-03-09T17:09:23.079Z,3.90
2019-03-09T17:11:52.255Z,4.27
2019-03-09T17:14:21.434Z,3.23
2019-03-09T17:16:50.618Z,4.13
2019-03-09T17:19:19.830Z,3.40
2019-03-09T17:21:49.016Z,4.07
2019-03-09T17:24:18.188Z,3.43
2019-03-09T17:26:47.381Z,4.07
2019-03-09T17:29:16.562Z,3.77
2019-03-09T17:31:45.754Z,4.27
2019-03-09T17:34:14.923Z,3.40
2019-03-09T17:36:44.107Z,4.33
2019-03-09T17:39:13.295Z,3.90
2019-03-09T17:41:42.486Z,4.17
2019-03-09T17:44:11.680Z,4.37
2019-03-09T17:46:40.856Z,3.83
2019-03-09T17:49:10.059Z,3.20
2019-03-09T17:51:39.298Z,3.50
2019-03-09T17:54:08.419Z,3.43
2019-03-09T17:56:37.656Z,4.00
2019-03-09T17:59:06.812Z,3.60
2019-03-09T18:01:36.008Z,4.13
2019-03-09T18:04:05.183Z,4.27
2019-03-09T18:06:34.369Z,3.73
2019-03-09T18:09:04.755Z,3.63
2019-03-09T18:11:33.956Z,4.10
2019-03-09T18:14:06.929Z,3.03
2019-03-09T18:16:33.991Z,3.10
2019-03-09T18:19:03.188Z,3.93
2019-03-09T18:21:32.343Z,3.13
2019-03-09T18:24:01.569Z,2.93
2019-03-09T18:26:30.715Z,3.13
2019-03-09T18:29:00.033Z,2.10
2019-03-09T18:31:29.201Z,3.07
2019-03-09T18:33:58.367Z,3.17
2019-03-09T18:36:27.736Z,2.30
2019-03-09T18:38:56.913Z,3.10
2019-03-09T18:41:26.101Z,3.17
2019-03-09T18:43:55.287Z,2.50
2019-03-09T18:46:24.514Z,3.03
2019-03-09T18:48:53.711Z,3.13
2019-03-09T18:51:22.879Z,3.10
2019-03-09T18:53:52.159Z,4.20
2019-03-09T18:56:21.319Z,2.90
2019-03-09T18:58:50.500Z,2.87
2019-03-09T19:01:19.705Z,3.27
2019-03-09T19:03:48.916Z,3.37
2019-03-09T19:06:18.097Z,3.00
2019-03-09T19:08:47.271Z,3.60
2019-03-09T19:11:16.463Z,4.00
2019-03-09T19:13:45.671Z,3.63
2019-03-09T19:16:14.835Z,3.97
2019-03-09T19:18:44.091Z,3.57
2019-03-09T19:21:13.751Z,3.97
2019-03-09T19:23:42.946Z,3.97
2019-03-09T19:26:12.152Z,3.07
2019-03-09T19:28:41.389Z,3.40
2019-03-09T19:31:10.561Z,3.77
2019-03-09T19:33:39.762Z,3.57
2019-03-09T19:36:08.975Z,3.23
2019-03-09T19:38:38.181Z,3.67
2019-03-09T19:41:07.379Z,3.43
2019-03-09T19:43:36.554Z,3.43
2019-03-09T19:46:05.752Z,2.77
2019-03-09T19:48:34.930Z,3.33
2019-03-09T19:51:04.204Z,4.07
2019-03-09T19:53:33.415Z,4.20
2019-03-09T19:56:02.596Z,3.53
2019-03-09T19:58:31.783Z,2.90
2019-03-09T20:01:00.990Z,3.63
2019-03-09T20:03:30.162Z,3.77
2019-03-09T20:05:59.438Z,4.10
2019-03-09T20:08:28.625Z,3.57
2019-03-09T20:10:57.895Z,3.83
2019-03-09T20:13:27.098Z,2.93
2019-03-09T20:15:56.330Z,4.40
2019-03-09T20:18:25.526Z,4.07
2019-03-09T20:21:12.809Z,3.40
2019-03-09T20:23:42.046Z,3.43
2019-03-09T20:26:11.329Z,4.30
2019-03-09T20:28:40.525Z,4.80
2019-03-09T20:31:09.729Z,4.17
2019-03-09T20:33:38.937Z,3.77
2019-03-09T20:36:08.115Z,4.23
2019-03-09T20:38:37.303Z,3.57
2019-03-09T20:41:06.488Z,3.47
2019-03-09T20:43:35.661Z,3.87
2019-03-09T20:46:04.918Z,3.87
2019-03-09T20:48:34.045Z,4.33
2019-03-09T20:51:03.248Z,3.37
2019-03-09T20:53:32.428Z,4.23
2019-03-09T20:56:01.604Z,3.97
2019-03-09T20:58:30.803Z,3.73
2019-03-09T21:01:00.143Z,4.03
2019-03-09T21:03:29.327Z,3.87
2019-03-09T21:05:58.502Z,3.87
2019-03-09T21:08:27.687Z,3.53
2019-03-09T21:11:03.904Z,4.33
2019-03-09T21:13:27.777Z,3.77
2019-03-09T21:15:56.952Z,4.70
2019-03-09T21:18:26.149Z,4.13
2019-03-09T21:20:55.310Z,3.77
2019-03-09T21:23:24.502Z,4.10
2019-03-09T21:25:53.728Z,3.83
2019-03-09T21:28:22.918Z,3.50
2019-03-09T21:30:52.083Z,3.90
2019-03-09T21:33:21.290Z,3.90
2019-03-09T21:35:50.500Z,4.53
2019-03-09T21:38:19.680Z,3.90
2019-03-09T21:40:48.870Z,3.37
2019-03-09T21:43:18.070Z,4.47
2019-03-09T21:45:47.244Z,3.67
2019-03-09T21:48:16.463Z,4.07
2019-03-09T21:50:45.647Z,4.23
2019-03-09T21:53:15.673Z,3.90
2019-03-09T21:55:44.853Z,4.10
2019-03-09T21:58:14.071Z,3.87
2019-03-09T22:00:43.249Z,3.80
2019-03-09T22:03:12.425Z,3.03
2019-03-09T22:05:41.621Z,4.33
2019-03-09T22:08:10.797Z,3.47
2019-03-09T22:10:40.055Z,3.70
2019-03-09T22:13:09.167Z,4.47
2019-03-09T22:15:38.347Z,4.17
2019-03-09T22:18:07.530Z,3.73
2019-03-09T22:20:36.719Z,5.43
2019-03-09T22:23:05.981Z,3.73
2019-03-09T22:25:35.197Z,3.67
2019-03-09T22:28:04.555Z,3.40
2019-03-09T22:30:33.726Z,3.90
2019-03-09T22:33:04.632Z,3.23
2019-03-09T22:35:33.773Z,4.07
2019-03-09T22:38:03.002Z,3.50
2019-03-09T22:40:32.174Z,3.20
2019-03-09T22:43:01.350Z,4.10
2019-03-09T22:45:30.542Z,3.23
2019-03-09T22:47:59.792Z,3.67
2019-03-09T22:50:28.971Z,3.90
2019-03-09T22:52:58.159Z,3.60
2019-03-09T22:55:27.348Z,3.13
2019-03-09T22:57:56.543Z,3.40
2019-03-09T23:00:27.168Z,4.03
2019-03-09T23:02:56.553Z,3.93
2019-03-09T23:05:25.831Z,3.93
2019-03-09T23:07:55.011Z,3.30
2019-03-09T23:10:28.297Z,3.87
2019-03-09T23:12:57.492Z,4.00
2019-03-09T23:15:26.694Z,3.93
2019-03-09T23:18:03.843Z,3.53
2019-03-09T23:20:33.075Z,3.67
2019-03-09T23:23:02.254Z,3.37
2019-03-09T23:25:31.500Z,3.80
2019-03-09T23:28:00.707Z,3.47
2019-03-09T23:30:29.906Z,4.10
2019-03-09T23:32:59.018Z,3.77
2019-03-09T23:35:28.195Z,3.37
2019-03-09T23:37:57.371Z,3.50
2019-03-09T23:40:26.639Z,3.90
2019-03-09T23:42:55.799Z,3.80
2019-03-09T23:45:26.685Z,3.50
2019-03-09T23:47:56.215Z,3.20
2019-03-09T23:50:25.554Z,3.77
2019-03-09T23:52:54.821Z,3.57
2019-03-09T23:55:24.327Z,3.73
2019-03-09T23:57:53.583Z,3.93
